Time;durP1;ratioP1;P1;durP2;ratioP2;P2;SDS_P1;SDS_P2;PMS_P1;PMS_P2;Temp;Humidity;BMP_temperature;BMP_pressure;BME280_temperature;BME280_humidity;BME280_pressure;Samples;Min_cycle;Max_cycle;Signal;HPM_P1;HPM_P2
2022/07/24 00:00:50;;;;;;;3.47;3.17;;;19.70;83.30;;;;;;5067130;28;20036;-61
2022/07/24 00:03:17;;;;;;;3.03;2.70;;;19.70;83.50;;;;;;5068307;28;20059;-61
2022/07/24 00:05:42;;;;;;;4.57;2.55;;;19.70;83.70;;;;;;5070817;28;20016;-61
2022/07/24 00:08:08;;;;;;;2.63;2.28;;;19.70;83.90;;;;;;5070053;28;20129;-61
2022/07/24 00:10:34;;;;;;;2.95;2.65;;;19.70;84.10;;;;;;5067167;28;20549;-61
2022/07/24 00:12:59;;;;;;;3.50;2.50;;;19.70;84.10;;;;;;5084236;28;20016;-61
2022/07/24 00:15:25;;;;;;;3.17;2.83;;;19.70;84.20;;;;;;5070245;28;20028;-62
2022/07/24 00:17:50;;;;;;;2.88;2.58;;;19.70;84.10;;;;;;5069886;28;20086;-61
2022/07/24 00:20:16;;;;;;;3.72;2.75;;;19.70;84.10;;;;;;5067214;28;20028;-61
2022/07/24 00:22:41;;;;;;;4.68;3.28;;;19.70;84.10;;;;;;5070524;28;20032;-61
2022/07/24 00:25:07;;;;;;;4.72;3.50;;;19.70;84.20;;;;;;5068526;28;20497;-61
2022/07/24 00:27:33;;;;;;;3.78;3.15;;;19.70;84.50;;;;;;5068287;28;20504;-61
2022/07/24 00:29:58;;;;;;;4.47;3.70;;;19.70;84.90;;;;;;5067148;28;20021;-61
2022/07/24 00:32:24;;;;;;;3.97;3.53;;;19.60;85.00;;;;;;5069159;28;20024;-61
2022/07/24 00:34:49;;;;;;;3.75;3.13;;;19.60;85.10;;;;;;5068523;28;20024;-61
2022/07/24 00:37:15;;;;;;;6.30;5.47;;;19.60;85.30;;;;;;5069313;28;20024;-61
2022/07/24 00:39:40;;;;;;;6.95;5.70;;;19.60;85.90;;;;;;5067109;28;20059;-62
2022/07/24 00:42:06;;;;;;;6.85;5.55;;;19.50;86.20;;;;;;5067736;28;20035;-61
2022/07/24 00:44:31;;;;;;;7.32;6.50;;;19.40;86.40;;;;;;5070111;28;20032;-63
2022/07/24 00:46:57;;;;;;;9.45;7.15;;;19.40;86.80;;;;;;5068932;28;20027;-61
2022/07/24 00:49:23;;;;;;;9.40;8.40;;;19.30;87.30;;;;;;5068656;28;20479;-61
2022/07/24 00:51:50;;;;;;;8.32;7.47;;;19.20;87.90;;;;;;5068820;28;20032;-62
2022/07/24 00:54:17;;;;;;;8.73;7.82;;;19.20;88.30;;;;;;5069021;28;20806;-61
2022/07/24 00:56:45;;;;;;;11.32;7.38;;;19.10;88.70;;;;;;5068431;28;20027;-61
2022/07/24 00:59:11;;;;;;;10.15;7.63;;;19.10;89.00;;;;;;5066300;28;20527;-61
2022/07/24 01:01:37;;;;;;;9.40;8.35;;;19.00;89.30;;;;;;5068392;28;20042;-61
2022/07/24 01:04:03;;;;;;;10.05;9.05;;;19.00;89.70;;;;;;5068602;28;20217;-62
2022/07/24 01:06:28;;;;;;;11.00;8.65;;;18.90;90.00;;;;;;5068214;28;20476;-61
2022/07/24 01:08:54;;;;;;;9.40;8.07;;;18.90;90.20;;;;;;5067338;28;20053;-61
2022/07/24 01:11:21;;;;;;;11.73;9.15;;;18.90;90.30;;;;;;5069329;28;20105;-61
2022/07/24 01:13:48;;;;;;;10.93;8.25;;;18.90;90.60;;;;;;5068712;28;20021;-61
2022/07/24 01:16:14;;;;;;;11.55;9.05;;;18.80;90.80;;;;;;5068244;28;20694;-61
2022/07/24 01:18:39;;;;;;;10.05;8.25;;;18.80;90.90;;;;;;5065523;28;20487;-61
2022/07/24 01:21:06;;;;;;;10.05;9.05;;;18.80;91.10;;;;;;5066829;28;20101;-61
2022/07/24 01:23:32;;;;;;;12.63;9.30;;;18.80;91.20;;;;;;5068828;28;20048;-61
2022/07/24 01:25:57;;;;;;;10.38;8.68;;;18.70;91.30;;;;;;5067913;28;20480;-61
2022/07/24 01:28:23;;;;;;;10.25;9.13;;;18.70;91.50;;;;;;5067253;28;20024;-61
2022/07/24 01:30:49;;;;;;;11.88;9.40;;;18.70;91.60;;;;;;5066573;28;20119;-61
2022/07/24 01:33:15;;;;;;;10.02;9.02;;;18.70;91.70;;;;;;5068362;28;20107;-61
2022/07/24 01:35:42;;;;;;;9.93;8.73;;;18.70;91.70;;;;;;5064565;28;20358;-61
2022/07/24 01:38:08;;;;;;;9.60;8.68;;;18.70;91.80;;;;;;5066818;28;20044;-62
2022/07/24 01:40:34;;;;;;;9.45;8.48;;;18.60;92.10;;;;;;5066491;28;20028;-61
2022/07/24 01:43:00;;;;;;;11.52;8.57;;;18.60;91.90;;;;;;5068163;28;20069;-61
2022/07/24 01:45:25;;;;;;;12.05;8.50;;;18.60;92.00;;;;;;5066620;28;20025;-62
2022/07/24 01:47:51;;;;;;;10.18;8.73;;;18.60;92.10;;;;;;5067140;28;20027;-61
2022/07/24 01:50:17;;;;;;;11.45;9.20;;;18.60;92.10;;;;;;5066287;28;20392;-61
2022/07/24 01:52:43;;;;;;;11.23;10.10;;;18.60;92.20;;;;;;5067653;28;20025;-61
2022/07/24 01:55:08;;;;;;;10.65;9.55;;;18.60;92.20;;;;;;5067701;28;20024;-61
2022/07/24 01:57:35;;;;;;;11.75;9.48;;;18.50;92.30;;;;;;5066728;28;20175;-62
2022/07/24 02:00:01;;;;;;;10.85;9.27;;;18.50;92.50;;;;;;5067864;28;20415;-61
2022/07/24 02:02:27;;;;;;;11.30;9.80;;;18.40;92.60;;;;;;5067303;28;20618;-61
2022/07/24 02:04:53;;;;;;;12.15;10.02;;;18.40;92.80;;;;;;5067728;28;20538;-61
2022/07/24 02:07:18;;;;;;;12.13;10.82;;;18.40;92.90;;;;;;5065798;28;20025;-62
2022/07/24 02:09:44;;;;;;;11.95;10.35;;;18.30;93.00;;;;;;5066189;28;20483;-61
2022/07/24 02:12:10;;;;;;;15.43;11.30;;;18.30;93.00;;;;;;5067176;28;20021;-61
2022/07/24 02:14:35;;;;;;;11.85;10.63;;;18.20;93.10;;;;;;5066196;28;20025;-61
2022/07/24 02:17:01;;;;;;;13.02;11.38;;;18.20;93.20;;;;;;5062589;28;20103;-61
2022/07/24 02:19:26;;;;;;;13.23;11.38;;;18.20;93.40;;;;;;5067130;28;20093;-61
2022/07/24 02:21:52;;;;;;;12.90;11.18;;;18.20;93.40;;;;;;5066860;28;20032;-61
2022/07/24 02:24:18;;;;;;;13.18;10.68;;;18.20;93.50;;;;;;5066713;28;20103;-61
2022/07/24 02:26:43;;;;;;;12.43;10.75;;;18.20;93.50;;;;;;5069605;28;20488;-61
2022/07/24 02:29:09;;;;;;;12.02;9.98;;;18.10;93.50;;;;;;5069050;28;20032;-61
2022/07/24 02:31:34;;;;;;;12.35;11.05;;;18.10;93.50;;;;;;5065889;28;20074;-61
2022/07/24 02:34:00;;;;;;;13.18;11.45;;;18.10;93.50;;;;;;5067014;28;20021;-61
2022/07/24 02:36:26;;;;;;;12.48;11.18;;;18.00;93.60;;;;;;5065531;28;20093;-61
2022/07/24 02:38:51;;;;;;;16.05;12.65;;;18.00;93.80;;;;;;5065722;28;20090;-61
2022/07/24 02:41:17;;;;;;;15.43;12.55;;;18.00;93.90;;;;;;5068345;28;20093;-61
2022/07/24 02:43:43;;;;;;;15.07;13.48;;;17.90;94.00;;;;;;5066536;28;20025;-61
2022/07/24 02:46:09;;;;;;;12.80;11.48;;;17.90;94.00;;;;;;5066670;28;20472;-61
2022/07/24 02:48:34;;;;;;;11.32;10.13;;;17.90;94.00;;;;;;5066213;28;20464;-61
2022/07/24 02:51:00;;;;;;;10.20;9.20;;;17.90;94.00;;;;;;5067914;28;20050;-61
2022/07/24 02:53:25;;;;;;;8.38;7.55;;;17.90;93.90;;;;;;5065392;28;20468;-61
2022/07/24 02:55:51;;;;;;;8.32;7.53;;;18.00;93.90;;;;;;5067238;28;20024;-61
2022/07/24 02:58:17;;;;;;;9.18;8.18;;;18.00;93.70;;;;;;5062273;28;20795;-62
2022/07/24 03:00:42;;;;;;;9.23;7.38;;;18.00;93.70;;;;;;5065516;28;20097;-61
2022/07/24 03:03:08;;;;;;;9.23;7.53;;;18.10;93.60;;;;;;5069177;28;20029;-62
2022/07/24 03:05:33;;;;;;;10.52;7.50;;;18.10;93.50;;;;;;5068318;28;20098;-61
2022/07/24 03:07:59;;;;;;;8.05;7.25;;;18.00;93.50;;;;;;5065524;28;20036;-61
2022/07/24 03:10:24;;;;;;;8.75;7.10;;;18.10;93.40;;;;;;5066825;28;20052;-61
2022/07/24 03:12:50;;;;;;;8.52;7.45;;;18.10;93.40;;;;;;5063882;28;20060;-61
2022/07/24 03:15:16;;;;;;;8.80;7.68;;;18.10;93.30;;;;;;5067832;28;20025;-61
2022/07/24 03:17:53;;;;;;;11.52;9.40;;;18.10;93.40;;;;;;5067265;28;20099;-61
2022/07/24 03:20:20;;;;;;;14.25;12.05;;;18.10;93.40;;;;;;5066578;28;20021;-61
2022/07/24 03:22:46;;;;;;;15.35;12.95;;;18.00;93.60;;;;;;5063244;28;20027;-61
2022/07/24 03:25:12;;;;;;;14.45;12.95;;;17.90;93.90;;;;;;5067944;28;20024;-61
2022/07/24 03:27:38;;;;;;;14.20;12.63;;;17.70;94.30;;;;;;5058022;28;20024;-61
2022/07/24 03:30:05;;;;;;;14.57;12.25;;;17.60;94.60;;;;;;5069533;28;20546;-61
2022/07/24 03:32:31;;;;;;;13.82;12.40;;;17.50;94.90;;;;;;5067662;28;20028;-61
2022/07/24 03:34:56;;;;;;;15.05;13.43;;;17.50;95.10;;;;;;5074028;28;20438;-62
2022/07/24 03:37:22;;;;;;;15.07;13.40;;;17.50;95.20;;;;;;5070000;28;20033;-61
2022/07/24 03:39:47;;;;;;;13.98;12.48;;;17.40;95.30;;;;;;5068556;28;20021;-61
2022/07/24 03:42:13;;;;;;;18.08;14.13;;;17.40;95.50;;;;;;5069278;28;20035;-61
2022/07/24 03:44:38;;;;;;;18.23;13.75;;;17.30;95.70;;;;;;5069569;28;20024;-61
2022/07/24 03:47:04;;;;;;;15.82;14.18;;;17.20;95.90;;;;;;5070469;28;20032;-61
2022/07/24 03:49:29;;;;;;;17.92;13.48;;;17.20;96.10;;;;;;5068090;28;20091;-61
2022/07/24 03:51:55;;;;;;;15.40;13.73;;;17.20;96.20;;;;;;5068903;28;20040;-61
2022/07/24 03:54:21;;;;;;;16.15;14.15;;;17.20;96.20;;;;;;5069602;28;20022;-61
2022/07/24 03:56:47;;;;;;;13.20;11.95;;;17.20;96.30;;;;;;5071241;28;20054;-61
2022/07/24 03:59:13;;;;;;;13.50;10.93;;;17.20;96.20;;;;;;5067772;28;20052;-61
2022/07/24 04:01:38;;;;;;;14.35;12.15;;;17.30;96.10;;;;;;5068524;28;20629;-61
2022/07/24 04:04:06;;;;;;;12.80;11.48;;;17.30;96.00;;;;;;5081611;28;20473;-61
2022/07/24 04:06:33;;;;;;;13.70;12.30;;;17.30;96.00;;;;;;5069131;28;20040;-61
2022/07/24 04:09:00;;;;;;;15.35;13.80;;;17.30;96.10;;;;;;5070048;28;20480;-61
2022/07/24 04:11:26;;;;;;;16.27;13.63;;;17.30;96.30;;;;;;5070847;28;20465;-61
2022/07/24 04:13:51;;;;;;;16.25;14.52;;;17.20;96.50;;;;;;5068330;28;20060;-61
2022/07/24 04:16:17;;;;;;;15.48;13.80;;;17.20;96.80;;;;;;5069113;28;20598;-61
2022/07/24 04:18:43;;;;;;;18.27;14.80;;;17.20;97.10;;;;;;5068203;28;20090;-61
2022/07/24 04:21:08;;;;;;;17.23;14.30;;;17.10;97.30;;;;;;5069414;28;20113;-61
2022/07/24 04:23:34;;;;;;;16.92;13.30;;;17.10;97.40;;;;;;5067714;28;20020;-61
2022/07/24 04:26:00;;;;;;;15.43;13.73;;;17.10;97.50;;;;;;5068290;28;20027;-61
2022/07/24 04:28:26;;;;;;;19.48;13.60;;;17.10;97.60;;;;;;5068932;28;20480;-61
2022/07/24 04:30:51;;;;;;;17.35;13.55;;;17.10;97.70;;;;;;5069659;28;20040;-63
2022/07/24 04:33:17;;;;;;;13.73;11.27;;;17.10;97.80;;;;;;5068348;28;20127;-61
2022/07/24 04:35:43;;;;;;;11.80;10.55;;;17.10;97.80;;;;;;5067635;28;20020;-61
2022/07/24 04:38:08;;;;;;;14.20;12.45;;;17.20;97.80;;;;;;5069578;28;20025;-61
2022/07/24 04:40:34;;;;;;;16.08;13.40;;;17.20;97.80;;;;;;5067914;28;20324;-61
2022/07/24 04:42:59;;;;;;;12.52;11.30;;;17.20;97.80;;;;;;5068526;28;20032;-61
2022/07/24 04:45:25;;;;;;;16.27;13.35;;;17.20;97.80;;;;;;5068832;28;20103;-61
2022/07/24 04:47:50;;;;;;;18.42;14.38;;;17.20;97.90;;;;;;5068132;28;20033;-61
2022/07/24 04:50:16;;;;;;;16.38;14.68;;;17.20;98.10;;;;;;5068565;28;20033;-61
2022/07/24 04:52:41;;;;;;;17.15;15.38;;;17.20;98.30;;;;;;5065150;28;20028;-61
2022/07/24 04:55:08;;;;;;;18.45;16.55;;;17.10;98.50;;;;;;5069876;28;20040;-61
2022/07/24 04:57:34;;;;;;;20.13;16.15;;;17.20;98.70;;;;;;5059282;28;20014;-61
2022/07/24 04:59:59;;;;;;;20.13;17.73;;;17.10;98.90;;;;;;5073066;28;20450;-61
2022/07/24 05:02:25;;;;;;;20.23;17.13;;;17.10;99.10;;;;;;5072047;28;20020;-61
2022/07/24 05:04:51;;;;;;;23.65;19.05;;;17.20;99.40;;;;;;5072383;28;20032;-61
2022/07/24 05:07:17;;;;;;;20.48;18.30;;;17.20;99.60;;;;;;5071537;28;20025;-61
2022/07/24 05:09:42;;;;;;;22.02;19.67;;;17.10;99.80;;;;;;5082792;28;20086;-61
2022/07/24 05:12:08;;;;;;;22.15;19.70;;;17.20;99.90;;;;;;5074421;28;20025;-61
2022/07/24 05:14:33;;;;;;;27.10;21.60;;;17.20;99.90;;;;;;5073456;28;20103;-61
2022/07/24 05:16:59;;;;;;;24.75;21.05;;;17.20;99.90;;;;;;5067479;28;20395;-61
2022/07/24 05:19:25;;;;;;;25.92;22.25;;;17.20;99.90;;;;;;5065328;28;20475;-60
2022/07/24 05:21:50;;;;;;;25.33;21.85;;;17.20;99.90;;;;;;5073092;28;20502;-61
2022/07/24 05:24:16;;;;;;;26.58;21.85;;;17.30;99.90;;;;;;5071766;28;20127;-61
2022/07/24 05:26:41;;;;;;;26.70;23.25;;;17.40;99.90;;;;;;5071739;28;20439;-61
2022/07/24 05:29:07;;;;;;;28.02;22.88;;;17.40;99.90;;;;;;5071898;28;20028;-61
2022/07/24 05:31:33;;;;;;;28.92;23.58;;;17.40;99.90;;;;;;5070933;28;20033;-61
2022/07/24 05:33:59;;;;;;;27.90;24.17;;;17.50;99.90;;;;;;5070432;28;20393;-61
2022/07/24 05:36:25;;;;;;;26.83;24.02;;;17.60;99.90;;;;;;5068615;28;20017;-61
2022/07/24 05:38:50;;;;;;;26.58;23.40;;;17.60;99.90;;;;;;5070587;28;20029;-61
2022/07/24 05:41:16;;;;;;;25.77;22.90;;;17.60;99.90;;;;;;5068887;28;20033;-61
2022/07/24 05:43:42;;;;;;;25.85;22.73;;;17.70;99.90;;;;;;5070771;28;20031;-61
2022/07/24 05:46:07;;;;;;;25.38;22.67;;;17.80;99.90;;;;;;5069311;28;20032;-60
2022/07/24 05:48:33;;;;;;;27.63;23.80;;;17.80;99.90;;;;;;5068647;28;20028;-61
2022/07/24 05:50:59;;;;;;;28.35;23.70;;;17.80;99.90;;;;;;5067900;28;20449;-61
2022/07/24 05:53:24;;;;;;;24.65;20.33;;;17.90;99.90;;;;;;5069204;28;20400;-61
2022/07/24 05:55:50;;;;;;;26.85;21.17;;;17.90;99.90;;;;;;5062965;28;20389;-61
2022/07/24 05:58:16;;;;;;;23.63;21.08;;;18.00;99.90;;;;;;5071058;28;20104;-61
2022/07/24 06:00:42;;;;;;;23.15;19.73;;;18.10;99.90;;;;;;5063438;28;20409;-61
2022/07/24 06:03:08;;;;;;;25.02;22.08;;;18.20;99.90;;;;;;5067191;28;20032;-61
2022/07/24 06:05:33;;;;;;;23.38;20.25;;;18.20;99.90;;;;;;5062049;28;20025;-61
2022/07/24 06:07:59;;;;;;;19.23;16.90;;;18.30;99.90;;;;;;5066978;28;20024;-61
2022/07/24 06:10:24;;;;;;;16.02;13.90;;;18.30;99.70;;;;;;5080056;28;20025;-61
2022/07/24 06:12:50;;;;;;;20.77;16.55;;;18.40;99.40;;;;;;5063484;28;20386;-61
2022/07/24 06:15:15;;;;;;;21.02;17.08;;;18.50;98.90;;;;;;5072095;28;20066;-61
2022/07/24 06:17:41;;;;;;;20.30;17.00;;;18.60;98.30;;;;;;5071155;28;20017;-61
2022/07/24 06:20:09;;;;;;;15.38;13.40;;;18.60;98.00;;;;;;5072335;28;20102;-61
2022/07/24 06:22:35;;;;;;;16.70;13.52;;;18.80;97.80;;;;;;5072595;28;20032;-61
2022/07/24 06:25:01;;;;;;;20.50;16.48;;;18.80;97.60;;;;;;5070940;28;20029;-61
2022/07/24 06:27:26;;;;;;;19.70;16.58;;;18.90;97.40;;;;;;5071150;28;20028;-61
2022/07/24 06:29:52;;;;;;;17.05;14.82;;;18.90;97.10;;;;;;5072214;28;20055;-61
2022/07/24 06:32:17;;;;;;;17.83;13.57;;;19.00;96.70;;;;;;5070897;28;20434;-61
2022/07/24 06:34:43;;;;;;;17.52;15.00;;;19.10;96.50;;;;;;5067037;28;20024;-61
2022/07/24 06:37:08;;;;;;;19.02;16.77;;;19.20;96.40;;;;;;5062758;28;20023;-61
2022/07/24 06:39:34;;;;;;;17.88;15.05;;;19.20;96.30;;;;;;5055295;28;20021;-61
2022/07/24 06:41:59;;;;;;;21.98;16.65;;;19.30;95.90;;;;;;5052564;28;20028;-61
2022/07/24 06:44:25;;;;;;;16.13;14.18;;;19.40;95.60;;;;;;5067643;28;20033;-61
2022/07/24 06:46:51;;;;;;;18.55;14.02;;;19.40;95.50;;;;;;5051976;28;20021;-61
2022/07/24 06:49:16;;;;;;;16.23;13.95;;;19.50;95.10;;;;;;5064100;28;20025;-60
2022/07/24 06:51:42;;;;;;;15.98;13.50;;;19.60;94.90;;;;;;5069636;28;20387;-61
2022/07/24 06:54:07;;;;;;;17.02;12.73;;;19.60;94.30;;;;;;5069267;28;20076;-62
2022/07/24 06:56:33;;;;;;;14.60;13.05;;;19.70;94.20;;;;;;5070091;28;20029;-61
2022/07/24 06:58:59;;;;;;;15.95;11.52;;;19.80;93.70;;;;;;5071531;28;20040;-61
2022/07/24 07:01:25;;;;;;;12.23;10.52;;;19.90;93.40;;;;;;5070029;28;20021;-61
2022/07/24 07:04:16;;;;;;;13.55;11.32;;;20.00;93.20;;;;;;5069957;28;20112;-61
2022/07/24 07:06:55;;;;;;;13.32;11.27;;;20.10;92.60;;;;;;5073781;28;20499;-61
2022/07/24 07:09:20;;;;;;;14.32;10.07;;;20.20;91.50;;;;;;5058924;28;20033;-61
2022/07/24 07:11:46;;;;;;;10.90;8.40;;;20.30;91.10;;;;;;5054764;28;20017;-61
2022/07/24 07:14:11;;;;;;;11.68;9.10;;;20.30;91.00;;;;;;5060244;28;20468;-61
2022/07/24 07:16:37;;;;;;;10.10;8.48;;;20.40;90.70;;;;;;5057060;28;20550;-61
2022/07/24 07:19:02;;;;;;;7.88;6.70;;;20.50;89.40;;;;;;5059669;28;20021;-61
2022/07/24 07:21:28;;;;;;;8.07;7.20;;;20.60;89.00;;;;;;5072682;28;20021;-61
2022/07/24 07:23:54;;;;;;;9.43;7.70;;;20.70;88.30;;;;;;5063880;28;20053;-61
2022/07/24 07:26:19;;;;;;;10.32;6.50;;;20.80;87.70;;;;;;5054322;28;20024;-62
2022/07/24 07:28:45;;;;;;;7.20;5.78;;;21.00;87.10;;;;;;5056527;28;20025;-62
2022/07/24 07:31:10;;;;;;;7.97;5.70;;;21.00;86.40;;;;;;5057075;28;20074;-61
2022/07/24 07:33:36;;;;;;;6.93;5.07;;;21.10;85.70;;;;;;5073146;28;20404;-61
2022/07/24 07:36:02;;;;;;;7.13;5.70;;;21.20;85.40;;;;;;5068174;28;20028;-61
2022/07/24 07:38:27;;;;;;;7.03;5.65;;;21.30;84.50;;;;;;5063133;28;20032;-61
2022/07/24 07:40:53;;;;;;;7.45;5.85;;;21.40;82.40;;;;;;5061770;28;20116;-61
2022/07/24 07:43:18;;;;;;;7.10;5.47;;;21.50;81.30;;;;;;5074138;28;20028;-61
2022/07/24 07:45:44;;;;;;;8.35;6.55;;;21.50;80.90;;;;;;5072048;28;20048;-61
2022/07/24 07:48:10;;;;;;;7.22;6.32;;;21.60;80.50;;;;;;5055294;28;20032;-61
2022/07/24 07:50:35;;;;;;;5.10;4.50;;;21.60;78.70;;;;;;5069446;28;20370;-61
2022/07/24 07:53:01;;;;;;;6.53;4.00;;;21.70;77.70;;;;;;5066605;28;20535;-61
2022/07/24 07:55:32;;;;;;;4.68;4.05;;;21.80;77.30;;;;;;5069836;28;20059;-61
2022/07/24 07:57:57;;;;;;;4.45;3.90;;;21.90;77.20;;;;;;5074902;28;20021;-61
2022/07/24 08:00:23;;;;;;;4.88;3.72;;;21.90;76.30;;;;;;5069438;28;20086;-61
2022/07/24 08:02:51;;;;;;;4.55;3.70;;;22.00;75.80;;;;;;5053810;28;20520;-61
2022/07/24 08:05:16;;;;;;;4.03;3.25;;;22.10;75.90;;;;;;5058747;28;20033;-61
2022/07/24 08:07:42;;;;;;;3.53;2.55;;;22.10;76.20;;;;;;5056378;28;20021;-61
2022/07/24 08:10:08;;;;;;;4.40;3.28;;;22.20;75.60;;;;;;5058711;28;20029;-61
2022/07/24 08:12:33;;;;;;;4.95;3.03;;;22.30;75.30;;;;;;5073703;28;20511;-61
2022/07/24 08:14:59;;;;;;;3.92;2.70;;;22.30;75.10;;;;;;5077050;28;20098;-61
2022/07/24 08:17:24;;;;;;;4.35;2.92;;;22.40;75.00;;;;;;5065920;28;20495;-61
2022/07/24 08:19:50;;;;;;;3.22;2.80;;;22.50;73.90;;;;;;5067300;28;20024;-61
2022/07/24 08:22:15;;;;;;;5.40;3.28;;;22.50;73.30;;;;;;5063332;28;20021;-61
2022/07/24 08:24:41;;;;;;;3.53;2.67;;;22.60;72.80;;;;;;5073893;28;20035;-62
2022/07/24 08:27:27;;;;;;;3.60;3.17;;;22.60;72.30;;;;;;5074128;28;20021;-62
2022/07/24 08:29:54;;;;;;;3.42;2.50;;;22.70;72.10;;;;;;5055564;28;20036;-62
2022/07/24 08:32:20;;;;;;;4.05;3.13;;;22.70;72.40;;;;;;5054650;28;20025;-61
2022/07/24 08:34:45;;;;;;;3.35;2.28;;;22.80;72.20;;;;;;5054199;28;20040;-61
2022/07/24 08:37:11;;;;;;;3.28;2.88;;;22.90;72.00;;;;;;5054098;28;20456;-61
2022/07/24 08:39:36;;;;;;;3.05;2.75;;;22.90;71.40;;;;;;5058137;28;20460;-61
2022/07/24 08:42:02;;;;;;;4.15;2.65;;;23.00;71.40;;;;;;5063615;28;20033;-61
2022/07/24 08:44:27;;;;;;;2.80;2.53;;;23.00;71.70;;;;;;5054536;28;20029;-61
2022/07/24 08:46:54;;;;;;;2.70;2.47;;;23.10;71.30;;;;;;5054353;28;20043;-61
2022/07/24 08:49:21;;;;;;;3.33;2.58;;;23.20;71.20;;;;;;5055816;28;20051;-61
2022/07/24 08:54:43;;;;;;;2.45;1.88;;;23.30;69.10;;;;;;5065920;28;20389;-62
2022/07/24 08:57:08;;;;;;;3.60;2.80;;;23.40;69.10;;;;;;5055126;28;20021;-61
2022/07/24 08:59:34;;;;;;;2.65;2.25;;;23.40;68.30;;;;;;5069077;28;20041;-61
2022/07/24 09:02:00;;;;;;;2.35;2.08;;;23.50;68.80;;;;;;5070076;28;20021;-61
2022/07/24 09:04:39;;;;;;;2.88;2.08;;;23.50;68.30;;;;;;5062569;28;20032;-61
2022/07/24 09:07:07;;;;;;;2.27;2.07;;;23.60;68.20;;;;;;5057865;28;20017;-61
2022/07/24 09:09:33;;;;;;;2.57;2.37;;;23.60;67.80;;;;;;5073569;28;20035;-61
2022/07/24 09:12:12;;;;;;;3.00;2.22;;;23.60;67.80;;;;;;5058990;28;20024;-61
2022/07/24 09:14:40;;;;;;;3.88;2.30;;;23.70;68.10;;;;;;5069120;28;20041;-61
2022/07/24 09:17:08;;;;;;;3.20;2.55;;;23.70;68.00;;;;;;5052410;28;20033;-62
2022/07/24 09:19:59;;;;;;;3.38;2.10;;;23.80;68.40;;;;;;5057477;28;20021;-62
2022/07/24 09:22:27;;;;;;;2.55;1.92;;;23.90;68.30;;;;;;5054846;28;20032;-61
2022/07/24 09:25:18;;;;;;;3.40;2.40;;;23.90;68.40;;;;;;5052089;28;20370;-61
2022/07/24 09:28:04;;;;;;;3.00;2.22;;;24.00;68.50;;;;;;5061443;28;20065;-62
2022/07/24 09:30:36;;;;;;;2.45;2.13;;;24.00;68.20;;;;;;5058865;28;20032;-62
2022/07/24 09:33:06;;;;;;;2.60;2.30;;;24.10;68.80;;;;;;5052297;28;20067;-61
2022/07/24 09:35:40;;;;;;;3.08;2.40;;;24.10;68.30;;;;;;5054586;28;20328;-61
2022/07/24 09:38:08;;;;;;;3.88;2.42;;;24.20;68.50;;;;;;5052225;28;20112;-62
2022/07/24 09:40:37;;;;;;;2.75;1.98;;;24.30;67.80;;;;;;5054995;28;20039;-61
2022/07/24 09:43:17;;;;;;;2.57;2.17;;;24.30;67.90;;;;;;5053084;28;20048;-61
2022/07/24 09:45:53;;;;;;;2.95;1.95;;;24.40;68.00;;;;;;5051703;28;20043;-61
2022/07/24 09:48:22;;;;;;;1.95;1.73;;;24.40;67.60;;;;;;5056239;28;20071;-61
2022/07/24 09:50:53;;;;;;;2.85;2.53;;;24.50;67.60;;;;;;5062748;28;20878;-61
2022/07/24 09:53:21;;;;;;;3.53;1.88;;;24.50;67.70;;;;;;5066593;28;20431;-61
2022/07/24 09:56:22;;;;;;;2.13;1.70;;;24.50;67.90;;;;;;5060185;28;20025;-61
2022/07/24 09:58:54;;;;;;;2.53;2.03;;;24.70;67.20;;;;;;5037006;28;20139;-61
2022/07/24 10:01:22;;;;;;;2.22;1.80;;;24.70;67.40;;;;;;5054670;28;20442;-62
2022/07/24 10:03:49;;;;;;;1.85;1.63;;;24.80;67.20;;;;;;5055275;28;20017;-62
2022/07/24 10:06:18;;;;;;;2.70;1.83;;;24.80;66.90;;;;;;5055726;28;20021;-62
2022/07/24 10:08:45;;;;;;;4.07;1.95;;;24.90;66.50;;;;;;5070347;28;20028;-62
2022/07/24 10:11:12;;;;;;;2.45;1.73;;;24.90;66.30;;;;;;5052737;28;20147;-62
2022/07/24 10:13:39;;;;;;;2.35;1.23;;;25.00;66.10;;;;;;5055156;28;20107;-62
2022/07/24 10:16:10;;;;;;;1.98;1.48;;;25.10;66.00;;;;;;5050193;28;20021;-61
2022/07/24 10:18:48;;;;;;;2.40;1.65;;;25.10;65.70;;;;;;5051586;28;20187;-61
2022/07/24 10:21:31;;;;;;;2.38;2.17;;;25.20;65.40;;;;;;5051102;28;20079;-62
2022/07/24 10:24:03;;;;;;;2.33;1.95;;;25.30;65.60;;;;;;5053940;28;20543;-62
2022/07/24 10:26:40;;;;;;;2.20;1.70;;;25.30;65.30;;;;;;5054967;28;20103;-61
2022/07/24 10:29:34;;;;;;;3.72;2.28;;;25.40;64.80;;;;;;5056524;28;20016;-62
2022/07/24 10:32:00;;;;;;;2.38;1.67;;;25.40;64.40;;;;;;5055240;28;20111;-61
2022/07/24 10:35:02;;;;;;;2.65;1.70;;;25.50;63.90;;;;;;5053472;28;20500;-62
2022/07/24 10:37:46;;;;;;;3.78;2.13;;;25.60;63.90;;;;;;5056940;28;20029;-61
2022/07/24 10:40:32;;;;;;;2.35;1.60;;;25.70;62.60;;;;;;5057733;28;20380;-62
2022/07/24 10:43:09;;;;;;;2.88;1.67;;;25.70;63.20;;;;;;5052163;28;20473;-62
2022/07/24 10:45:39;;;;;;;2.13;1.42;;;25.80;62.00;;;;;;5051434;28;20021;-61
2022/07/24 10:48:32;;;;;;;1.92;1.40;;;25.90;62.40;;;;;;5066183;28;20421;-62
2022/07/24 10:51:03;;;;;;;2.00;1.60;;;26.00;62.60;;;;;;5055282;28;20037;-62
2022/07/24 10:53:35;;;;;;;2.25;1.65;;;26.10;62.10;;;;;;5052693;28;20066;-61
2022/07/24 10:56:36;;;;;;;2.10;1.45;;;26.10;62.00;;;;;;5053470;28;20022;-61
2022/07/24 10:59:10;;;;;;;2.10;1.90;;;26.20;62.00;;;;;;5050569;28;20492;-61
2022/07/24 11:01:44;;;;;;;1.50;1.20;;;26.30;61.40;;;;;;5055333;28;20028;-62
2022/07/24 11:04:19;;;;;;;1.80;1.40;;;26.40;61.50;;;;;;5050935;28;20021;-62
2022/07/24 11:07:07;;;;;;;2.85;1.20;;;26.60;61.60;;;;;;5068062;28;20380;-61
2022/07/24 11:10:00;;;;;;;2.15;1.60;;;26.70;61.20;;;;;;5058675;28;20029;-61
2022/07/24 11:12:28;;;;;;;1.20;1.00;;;26.80;61.10;;;;;;5051494;28;20113;-61
2022/07/24 11:17:48;;;;;;;3.88;1.65;;;27.00;61.00;;;;;;5051324;28;20067;-62
2022/07/24 11:20:15;;;;;;;1.92;1.60;;;27.10;60.20;;;;;;5066081;28;20025;-61
2022/07/24 11:22:51;;;;;;;2.55;1.40;;;27.20;60.40;;;;;;5066080;28;20031;-61
2022/07/24 11:25:25;;;;;;;2.17;1.40;;;27.30;60.50;;;;;;5058516;28;20057;-62
2022/07/24 11:28:05;;;;;;;1.60;1.50;;;27.40;59.90;;;;;;5057533;28;20025;-62
2022/07/24 11:30:31;;;;;;;3.08;1.30;;;27.40;59.60;;;;;;5056180;28;20039;-62
2022/07/24 11:32:57;;;;;;;2.20;1.52;;;27.40;59.50;;;;;;5057435;28;20025;-61
2022/07/24 11:35:33;;;;;;;2.00;1.63;;;27.60;59.60;;;;;;5067521;28;20554;-62
2022/07/24 11:38:00;;;;;;;2.85;1.83;;;27.70;58.50;;;;;;5053628;28;20025;-62
2022/07/24 11:40:26;;;;;;;2.85;1.30;;;27.70;58.30;;;;;;5054990;28;20020;-62
2022/07/24 11:42:57;;;;;;;2.38;2.13;;;27.70;58.90;;;;;;5069031;28;20029;-62
2022/07/24 11:45:22;;;;;;;2.45;1.83;;;27.80;58.70;;;;;;5058311;28;20036;-61
2022/07/24 11:47:48;;;;;;;1.63;1.50;;;27.90;58.90;;;;;;5061498;28;20056;-62
2022/07/24 11:50:13;;;;;;;1.75;1.33;;;27.90;58.60;;;;;;5060101;28;20035;-61
2022/07/24 11:52:41;;;;;;;2.42;1.45;;;28.00;58.20;;;;;;5071212;28;20024;-61
2022/07/24 11:55:13;;;;;;;1.40;1.30;;;28.10;58.10;;;;;;5065926;28;20090;-62
2022/07/24 11:57:46;;;;;;;3.15;1.92;;;28.30;58.20;;;;;;5060648;28;20028;-62
2022/07/24 12:00:15;;;;;;;2.47;1.70;;;28.50;57.90;;;;;;5053471;28;20048;-62
2022/07/24 12:02:49;;;;;;;4.38;1.95;;;28.40;57.40;;;;;;5070043;28;20032;-62
2022/07/24 12:05:31;;;;;;;1.75;1.60;;;28.50;57.60;;;;;;5054827;28;20036;-62
2022/07/24 12:07:59;;;;;;;1.90;1.38;;;28.60;57.70;;;;;;5081660;28;20381;-62
2022/07/24 12:10:25;;;;;;;2.00;1.33;;;28.70;58.10;;;;;;5073566;28;20462;-62
2022/07/24 12:12:53;;;;;;;2.25;1.52;;;28.90;57.90;;;;;;5053982;28;20017;-62
2022/07/24 12:15:20;;;;;;;1.85;1.30;;;29.00;56.20;;;;;;5061361;28;20560;-62
2022/07/24 12:18:06;;;;;;;1.55;1.20;;;29.10;55.90;;;;;;5078570;28;20074;-62
2022/07/24 12:20:43;;;;;;;2.17;1.38;;;29.10;55.50;;;;;;5062498;28;20028;-62
2022/07/24 12:23:11;;;;;;;1.88;1.30;;;29.20;55.00;;;;;;5074156;28;20430;-62
2022/07/24 12:25:38;;;;;;;1.83;1.33;;;29.20;55.20;;;;;;5068614;28;20021;-61
2022/07/24 12:28:09;;;;;;;2.70;1.67;;;29.30;55.40;;;;;;5065649;28;20078;-62
2022/07/24 12:30:38;;;;;;;1.83;1.20;;;29.30;55.30;;;;;;5067795;28;20507;-61
2022/07/24 12:33:03;;;;;;;;;;;29.20;55.50;;;;;;5064490;28;20025;-62
2022/07/24 12:36:15;;;;;;;1.52;1.35;;;29.20;55.80;;;;;;5073124;28;19905;-62
2022/07/24 12:38:59;;;;;;;1.35;1.20;;;29.40;55.60;;;;;;5061250;28;20459;-62
2022/07/24 12:41:26;;;;;;;3.63;1.23;;;29.60;55.00;;;;;;5072019;28;20131;-62
2022/07/24 12:43:59;;;;;;;1.38;0.95;;;29.70;54.60;;;;;;5073436;28;20016;-62
2022/07/24 12:46:32;;;;;;;0.90;0.82;;;29.90;54.60;;;;;;5053039;28;20009;-62
2022/07/24 12:49:11;;;;;;;1.80;1.40;;;30.20;54.90;;;;;;5067461;28;20091;-61